createdAt,value
2024-02-29T00:01:10.719Z,101535.91
2024-02-29T00:03:37.347Z,101537.50
2024-02-29T00:06:04.143Z,101519.13
2024-02-29T00:08:30.555Z,101526.78
2024-02-29T00:10:57.070Z,101524.44
2024-02-29T00:13:24.046Z,101515.09
2024-02-29T00:15:50.520Z,101522.38
2024-02-29T00:18:16.963Z,101503.41
2024-02-29T00:20:43.426Z,101517.22
2024-02-29T00:23:09.911Z,101521.69
2024-02-29T00:25:36.729Z,101511.50
2024-02-29T00:28:03.554Z,101524.16
2024-02-29T00:30:30.126Z,101502.06
2024-02-29T00:32:58.283Z,101510.50
2024-02-29T00:35:25.047Z,101493.34
2024-02-29T00:37:51.481Z,101505.75
2024-02-29T00:40:17.974Z,101491.44
2024-02-29T00:42:44.579Z,101494.03
2024-02-29T00:45:11.273Z,101491.97
2024-02-29T00:47:37.969Z,101482.97
2024-02-29T00:50:04.755Z,101496.44
2024-02-29T00:52:31.335Z,101485.34
2024-02-29T00:54:57.960Z,101474.41
2024-02-29T00:57:24.662Z,101475.28
2024-02-29T00:59:51.653Z,101470.88
2024-02-29T01:02:18.271Z,101469.06
2024-02-29T01:04:44.766Z,101464.38
2024-02-29T01:07:11.346Z,101452.03
2024-02-29T01:09:37.953Z,101448.28
2024-02-29T01:12:04.595Z,101449.53
2024-02-29T01:14:31.088Z,101453.28
2024-02-29T01:16:58.118Z,101445.16
2024-02-29T01:19:24.668Z,101433.03
2024-02-29T01:21:51.376Z,101433.53
2024-02-29T01:24:17.878Z,101419.44
2024-02-29T01:26:44.493Z,101422.31
2024-02-29T01:29:11.110Z,101421.63
2024-02-29T01:31:37.590Z,101421.84
2024-02-29T01:34:04.090Z,101414.16
2024-02-29T01:36:30.640Z,101411.25
2024-02-29T01:38:57.137Z,101407.47
2024-02-29T01:41:23.774Z,101403.81
2024-02-29T01:43:54.821Z,101391.09
2024-02-29T01:46:21.666Z,101400.94
2024-02-29T01:48:49.337Z,101403.25
2024-02-29T01:51:17.131Z,101398.47
2024-02-29T01:53:43.732Z,101391.50
2024-02-29T01:56:11.984Z,101377.16
2024-02-29T01:58:40.153Z,101382.44
2024-02-29T02:01:06.879Z,101374.88
2024-02-29T02:03:34.022Z,101379.31
2024-02-29T02:06:00.495Z,101370.06
2024-02-29T02:08:30.495Z,101363.81
2024-02-29T02:10:57.118Z,101366.97
2024-02-29T02:13:23.614Z,101363.56
2024-02-29T02:15:50.268Z,101350.41
2024-02-29T02:18:16.748Z,101342.91
2024-02-29T02:20:43.259Z,101348.91
2024-02-29T02:23:09.850Z,101338.44
2024-02-29T02:25:36.379Z,101337.38
2024-02-29T02:28:02.860Z,101332.22
2024-02-29T02:30:29.305Z,101329.91
2024-02-29T02:32:55.969Z,101338.34
2024-02-29T02:35:22.463Z,101327.59
2024-02-29T02:37:50.447Z,101332.91
2024-02-29T02:40:17.405Z,101331.44
2024-02-29T02:42:43.951Z,101327.25
2024-02-29T02:45:10.513Z,101318.94
2024-02-29T02:47:37.104Z,101311.88
2024-02-29T02:50:03.781Z,101327.78
2024-02-29T02:52:30.293Z,101321.53
2024-02-29T02:54:56.823Z,101316.38
2024-02-29T02:57:23.341Z,101307.13
2024-02-29T02:59:49.837Z,101303.88
2024-02-29T03:02:16.413Z,101306.56
2024-02-29T03:04:43.190Z,101288.34
2024-02-29T03:07:09.779Z,101288.50
2024-02-29T03:09:36.283Z,101288.88
2024-02-29T03:12:03.275Z,101284.56
2024-02-29T03:14:30.510Z,101286.47
2024-02-29T03:16:57.000Z,101284.69
2024-02-29T03:19:23.575Z,101283.47
2024-02-29T03:21:50.108Z,101280.34
2024-02-29T03:24:16.648Z,101274.50
2024-02-29T03:26:43.168Z,101272.19
2024-02-29T03:29:09.659Z,101264.28
2024-02-29T03:31:36.102Z,101260.47
2024-02-29T03:34:03.799Z,101256.25
2024-02-29T03:36:30.476Z,101259.25
2024-02-29T03:38:56.941Z,101254.63
2024-02-29T03:41:23.533Z,101260.78
2024-02-29T03:43:50.019Z,101253.41
2024-02-29T03:46:16.571Z,101248.13
2024-02-29T03:48:43.088Z,101251.38
2024-02-29T03:51:09.752Z,101251.38
2024-02-29T03:53:36.253Z,101246.22
2024-02-29T03:56:02.758Z,101238.97
2024-02-29T03:58:29.250Z,101236.56
2024-02-29T04:00:55.953Z,101238.31
2024-02-29T04:03:22.465Z,101239.28
2024-02-29T04:05:48.945Z,101238.97
2024-02-29T04:08:15.479Z,101234.09
2024-02-29T04:10:51.753Z,101231.25
2024-02-29T04:13:18.762Z,101219.44
2024-02-29T04:15:47.128Z,101221.72
2024-02-29T04:18:15.722Z,101218.72
2024-02-29T04:20:42.265Z,101217.38
2024-02-29T04:23:08.716Z,101212.19
2024-02-29T04:25:35.212Z,101215.06
2024-02-29T04:28:01.712Z,101211.63
2024-02-29T04:30:28.166Z,101210.56
2024-02-29T04:32:54.772Z,101214.50
2024-02-29T04:35:21.711Z,101217.78
2024-02-29T04:37:48.575Z,101199.16
2024-02-29T04:40:15.180Z,101196.84
2024-02-29T04:42:42.223Z,101199.84
2024-02-29T04:45:09.247Z,101194.94
2024-02-29T04:47:35.980Z,101193.06
2024-02-29T04:50:04.237Z,101161.78
2024-02-29T04:52:30.725Z,101181.09
2024-02-29T04:54:57.496Z,101182.03
2024-02-29T04:57:24.001Z,101183.94
2024-02-29T04:59:50.543Z,101172.00
2024-02-29T05:02:17.304Z,101179.56
2024-02-29T05:04:44.019Z,101161.78
2024-02-29T05:07:10.575Z,101161.00
2024-02-29T05:09:37.172Z,101166.41
2024-02-29T05:12:03.774Z,101160.41
2024-02-29T05:14:31.389Z,101158.94
2024-02-29T05:16:57.919Z,101145.75
2024-02-29T05:19:24.387Z,101152.69
2024-02-29T05:21:52.743Z,101150.50
2024-02-29T05:24:19.630Z,101149.28
2024-02-29T05:26:46.119Z,101150.25
2024-02-29T05:29:12.606Z,101145.88
2024-02-29T05:31:39.247Z,101143.19
2024-02-29T05:34:05.714Z,101144.97
2024-02-29T05:36:33.106Z,101148.88
2024-02-29T05:38:59.689Z,101145.50
2024-02-29T05:41:26.223Z,101138.00
2024-02-29T05:43:52.709Z,101134.63
2024-02-29T05:46:19.218Z,101132.31
2024-02-29T05:48:45.732Z,101131.50
2024-02-29T05:51:12.632Z,101118.47
2024-02-29T05:53:39.244Z,101112.63
2024-02-29T05:56:05.772Z,101115.72
2024-02-29T05:58:32.853Z,101120.88
2024-02-29T06:00:59.579Z,101116.03
2024-02-29T06:03:26.170Z,101116.28
2024-02-29T06:05:52.760Z,101105.16
2024-02-29T06:08:19.246Z,101109.47
2024-02-29T06:10:47.974Z,101117.66
2024-02-29T06:13:15.455Z,101118.19
2024-02-29T06:15:43.175Z,101115.22
2024-02-29T06:18:11.350Z,101120.50
2024-02-29T06:20:37.886Z,101122.41
2024-02-29T06:23:04.620Z,101117.66
2024-02-29T06:25:31.182Z,101124.72
2024-02-29T06:27:58.085Z,101126.63
2024-02-29T06:30:32.879Z,101126.63
2024-02-29T06:32:59.910Z,101120.38
2024-02-29T06:35:26.562Z,101122.13
2024-02-29T06:37:53.013Z,101120.78
2024-02-29T06:40:22.594Z,101108.56
2024-02-29T06:42:52.304Z,101108.16
2024-02-29T06:45:19.103Z,101113.16
2024-02-29T06:47:45.800Z,101113.59
2024-02-29T06:50:13.217Z,101107.31
2024-02-29T06:52:41.348Z,101112.88
2024-02-29T06:55:11.523Z,101104.47
2024-02-29T06:57:38.118Z,101105.13
2024-02-29T07:00:07.021Z,101101.06
2024-02-29T07:02:34.101Z,101103.22
2024-02-29T07:05:00.634Z,101095.34
2024-02-29T07:07:27.997Z,101095.75
2024-02-29T07:09:55.426Z,101095.34
2024-02-29T07:12:22.201Z,101095.78
2024-02-29T07:14:48.765Z,101097.41
2024-02-29T07:17:15.280Z,101104.97
2024-02-29T07:19:41.745Z,101087.72
2024-02-29T07:22:08.951Z,101083.47
2024-02-29T07:24:35.509Z,101081.84
2024-02-29T07:27:02.867Z,101089.44
2024-02-29T07:29:29.966Z,101076.25
2024-02-29T07:31:56.437Z,101074.88
2024-02-29T07:34:22.919Z,101071.34
2024-02-29T07:36:50.201Z,101078.72
2024-02-29T07:39:17.651Z,101073.78
2024-02-29T07:41:44.354Z,101068.88
2024-02-29T07:44:11.108Z,101069.97
2024-02-29T07:46:37.702Z,101069.72
2024-02-29T07:49:04.271Z,101066.16
2024-02-29T07:51:30.873Z,101065.19
2024-02-29T07:53:57.482Z,101068.47
2024-02-29T07:56:25.774Z,101061.13
2024-02-29T07:58:53.477Z,101067.09
2024-02-29T08:01:20.332Z,101068.16
2024-02-29T08:03:47.034Z,101057.97
2024-02-29T08:06:13.538Z,101061.50
2024-02-29T08:08:40.024Z,101062.31
2024-02-29T08:11:07.262Z,101059.88
2024-02-29T08:13:33.840Z,101056.72
2024-02-29T08:16:00.377Z,101062.81
2024-02-29T08:18:26.818Z,101052.06
2024-02-29T08:20:53.325Z,101053.53
2024-02-29T08:23:19.823Z,101053.53
2024-02-29T08:25:46.325Z,101048.69
2024-02-29T08:28:12.863Z,101042.78
2024-02-29T08:30:39.650Z,101043.94
2024-02-29T08:33:06.299Z,101038.75
2024-02-29T08:35:32.832Z,101039.00
2024-02-29T08:37:59.395Z,101046.50
2024-02-29T08:40:26.502Z,101050.41
2024-02-29T08:42:53.217Z,101034.50
2024-02-29T08:45:22.003Z,101049.53
2024-02-29T08:47:50.092Z,101046.16
2024-02-29T08:50:16.766Z,101043.91
2024-02-29T08:52:43.524Z,101037.22
2024-02-29T08:55:10.312Z,101043.88
2024-02-29T08:57:37.082Z,101042.75
2024-02-29T09:00:04.162Z,101050.34
2024-02-29T09:02:30.738Z,101041.34
2024-02-29T09:04:57.186Z,101028.59
2024-02-29T09:07:25.924Z,101042.59
2024-02-29T09:09:52.635Z,101045.28
2024-02-29T09:12:19.979Z,101041.16
2024-02-29T09:14:47.536Z,101035.97
2024-02-29T09:17:14.402Z,101028.44
2024-02-29T09:19:40.942Z,101033.38
2024-02-29T09:22:07.563Z,101028.88
2024-02-29T09:24:34.374Z,101031.16
2024-02-29T09:27:00.893Z,101027.53
2024-02-29T09:29:29.176Z,101032.03
2024-02-29T09:31:56.897Z,101019.78
2024-02-29T09:34:23.543Z,101018.16
2024-02-29T09:36:50.364Z,101010.25
2024-02-29T09:39:16.981Z,101012.53
2024-02-29T09:41:59.869Z,101008.19
2024-02-29T09:44:30.772Z,101003.97
2024-02-29T09:46:57.275Z,101003.81
2024-02-29T09:49:23.801Z,100991.56
2024-02-29T09:51:50.610Z,100994.44
2024-02-29T09:54:18.572Z,101005.25
2024-02-29T09:56:46.640Z,101000.22
2024-02-29T09:59:17.363Z,101002.50
2024-02-29T10:01:52.268Z,100992.97
2024-02-29T10:04:19.532Z,100991.28
2024-02-29T10:06:46.093Z,100994.38
2024-02-29T10:09:12.642Z,100985.50
2024-02-29T10:11:42.743Z,100983.94
2024-02-29T10:14:22.951Z,100993.63
2024-02-29T10:16:51.174Z,100978.75
2024-02-29T10:19:17.728Z,100983.50
2024-02-29T10:21:44.382Z,100960.94
2024-02-29T10:24:10.878Z,100987.94
2024-02-29T10:26:37.371Z,100977.72
2024-02-29T10:29:05.197Z,100980.19
2024-02-29T10:31:31.846Z,100975.59
2024-02-29T10:33:58.349Z,100968.72
2024-02-29T10:36:24.870Z,100972.41
2024-02-29T10:38:52.255Z,100973.06
2024-02-29T10:41:19.341Z,100973.75
2024-02-29T10:43:48.737Z,100964.66
2024-02-29T10:46:15.567Z,100966.81
2024-02-29T10:48:58.571Z,100967.47
2024-02-29T10:51:41.917Z,100964.72
2024-02-29T10:54:26.865Z,100952.53
2024-02-29T10:56:54.982Z,100951.13
2024-02-29T10:59:21.937Z,100954.22
2024-02-29T11:01:49.270Z,100954.66
2024-02-29T11:04:16.512Z,100956.66
2024-02-29T11:06:47.822Z,100948.13
2024-02-29T11:09:16.765Z,100935.72
2024-02-29T11:11:48.179Z,100951.31
2024-02-29T11:14:18.687Z,100952.13
2024-02-29T11:16:48.790Z,100950.66
2024-02-29T11:19:19.454Z,100949.66
2024-02-29T11:21:46.827Z,100935.06
2024-02-29T11:24:18.249Z,100945.16
2024-02-29T11:26:44.700Z,100940.50
2024-02-29T11:29:19.736Z,100938.22
2024-02-29T11:31:55.275Z,100934.97
2024-02-29T11:34:22.582Z,100933.25
2024-02-29T11:36:50.494Z,100931.44
2024-02-29T11:39:23.622Z,100922.81
2024-02-29T11:41:51.185Z,100926.28
2024-02-29T11:44:17.709Z,100927.41
2024-02-29T11:46:48.388Z,100923.38
2024-02-29T11:49:18.521Z,100922.47
2024-02-29T11:51:45.940Z,100916.63
2024-02-29T11:54:14.104Z,100905.75
2024-02-29T11:56:40.692Z,100900.94
2024-02-29T11:59:10.395Z,100908.56
2024-02-29T12:01:37.902Z,100910.53
2024-02-29T12:04:06.150Z,100904.81
2024-02-29T12:06:34.294Z,100907.44
2024-02-29T12:09:01.341Z,100879.72
2024-02-29T12:11:28.254Z,100897.25
2024-02-29T12:13:54.951Z,100892.56
2024-02-29T12:16:21.607Z,100895.97
2024-02-29T12:18:48.240Z,100884.63
2024-02-29T12:21:14.845Z,100883.03
2024-02-29T12:23:41.424Z,100886.06
2024-02-29T12:26:09.018Z,100877.53
2024-02-29T12:28:36.337Z,100874.94
2024-02-29T12:31:03.041Z,100873.00
2024-02-29T12:33:30.226Z,100863.59
2024-02-29T12:35:56.928Z,100862.28
2024-02-29T12:38:25.010Z,100864.44
2024-02-29T12:40:53.045Z,100863.63
2024-02-29T12:43:23.379Z,100858.94
2024-02-29T12:45:50.072Z,100855.06
2024-02-29T12:48:16.635Z,100828.94
2024-02-29T12:50:43.218Z,100845.50
2024-02-29T12:53:09.778Z,100843.09
2024-02-29T12:55:36.964Z,100833.22
2024-02-29T12:58:04.661Z,100825.16
2024-02-29T13:00:31.309Z,100812.34
2024-02-29T13:02:57.793Z,100821.59
2024-02-29T13:05:24.233Z,100817.38
2024-02-29T13:07:51.303Z,100816.41
2024-02-29T13:10:17.937Z,100811.22
2024-02-29T13:12:51.448Z,100802.28
2024-02-29T13:15:21.192Z,100797.94
2024-02-29T13:17:47.724Z,100797.59
2024-02-29T13:20:14.355Z,100792.41
2024-02-29T13:22:41.090Z,100791.78
2024-02-29T13:25:08.221Z,100788.03
2024-02-29T13:27:35.297Z,100793.22
2024-02-29T13:30:01.959Z,100775.84
2024-02-29T13:32:31.173Z,100778.91
2024-02-29T13:34:58.052Z,100768.25
2024-02-29T13:37:25.831Z,100764.72
2024-02-29T13:39:53.095Z,100739.56
2024-02-29T13:42:19.964Z,100757.91
2024-02-29T13:44:48.038Z,100751.75
2024-02-29T13:47:14.536Z,100743.13
2024-02-29T13:49:41.062Z,100752.41
2024-02-29T13:52:07.901Z,100747.69
2024-02-29T13:54:34.519Z,100744.63
2024-02-29T13:57:01.239Z,100738.44
2024-02-29T13:59:30.523Z,100712.03
2024-02-29T14:01:57.200Z,100727.28
2024-02-29T14:04:23.837Z,100716.56
2024-02-29T14:06:50.404Z,100721.13
2024-02-29T14:09:17.045Z,100725.00
2024-02-29T14:11:43.690Z,100721.94
2024-02-29T14:14:10.306Z,100716.25
2024-02-29T14:16:36.832Z,100711.25
2024-02-29T14:19:03.323Z,100707.66
2024-02-29T14:21:29.944Z,100707.34
2024-02-29T14:23:56.483Z,100706.84
2024-02-29T14:26:23.975Z,100694.38
2024-02-29T14:28:52.244Z,100696.50
2024-02-29T14:31:19.026Z,100690.66
2024-02-29T14:33:45.689Z,100685.47
2024-02-29T14:36:12.953Z,100682.88
2024-02-29T14:38:39.787Z,100683.53
2024-02-29T14:41:06.334Z,100675.59
2024-02-29T14:43:32.808Z,100675.75
2024-02-29T14:45:59.372Z,100677.22
2024-02-29T14:48:25.904Z,100670.25
2024-02-29T14:50:52.401Z,100673.78
2024-02-29T14:53:18.888Z,100663.09
2024-02-29T14:55:45.375Z,100663.41
2024-02-29T14:58:11.931Z,100659.56
2024-02-29T15:00:38.539Z,100651.44
2024-02-29T15:03:05.432Z,100651.44
2024-02-29T15:05:31.874Z,100641.56
2024-02-29T15:07:59.052Z,100639.63
2024-02-29T15:10:25.612Z,100636.38
2024-02-29T15:12:52.329Z,100636.38
2024-02-29T15:15:18.987Z,100635.25
2024-02-29T15:17:45.618Z,100627.47
2024-02-29T15:20:12.573Z,100628.59
2024-02-29T15:22:39.277Z,100619.38
2024-02-29T15:25:15.421Z,100617.75
2024-02-29T15:27:46.812Z,100611.28
2024-02-29T15:30:13.666Z,100611.63
2024-02-29T15:32:40.183Z,100585.34
2024-02-29T15:35:07.490Z,100610.28
2024-02-29T15:37:34.050Z,100601.25
2024-02-29T15:40:00.786Z,100588.09
2024-02-29T15:42:27.889Z,100590.50
2024-02-29T15:44:54.448Z,100590.03
2024-02-29T15:47:21.061Z,100586.66
2024-02-29T15:49:49.360Z,100591.03
2024-02-29T15:52:17.589Z,100573.22
2024-02-29T15:54:44.492Z,100579.38
2024-02-29T15:57:12.459Z,100578.72
2024-02-29T15:59:40.167Z,100577.59
2024-02-29T16:02:07.777Z,100573.72
2024-02-29T16:04:34.321Z,100574.50
2024-02-29T16:07:01.069Z,100568.84
2024-02-29T16:09:27.773Z,100564.50
2024-02-29T16:11:54.471Z,100569.66
2024-02-29T16:14:21.127Z,100553.28
2024-02-29T16:16:48.774Z,100564.00
2024-02-29T16:19:16.858Z,100556.41
2024-02-29T16:21:43.627Z,100556.56
2024-02-29T16:24:10.432Z,100540.25
2024-02-29T16:26:37.301Z,100560.75
2024-02-29T16:29:04.056Z,100555.91
2024-02-29T16:31:30.789Z,100558.34
2024-02-29T16:33:57.621Z,100549.47
2024-02-29T16:36:24.270Z,100554.31
2024-02-29T16:38:50.817Z,100556.13
2024-02-29T16:41:17.590Z,100549.78
2024-02-29T16:43:44.549Z,100536.22
2024-02-29T16:46:11.446Z,100537.81
2024-02-29T16:48:38.445Z,100532.28
2024-02-29T16:51:05.608Z,100535.06
2024-02-29T16:53:32.400Z,100527.78
2024-02-29T16:55:59.831Z,100527.31
2024-02-29T16:58:26.651Z,100523.75
2024-02-29T17:00:55.410Z,100520.00
2024-02-29T17:03:22.075Z,100523.75
2024-02-29T17:05:48.635Z,100524.91
2024-02-29T17:08:15.166Z,100520.53
2024-02-29T17:10:42.050Z,100522.16
2024-02-29T17:13:08.662Z,100500.63
2024-02-29T17:15:38.215Z,100519.72
2024-02-29T17:18:05.060Z,100515.81
2024-02-29T17:20:31.578Z,100518.09
2024-02-29T17:22:58.068Z,100516.97
2024-02-29T17:25:24.642Z,100511.78
2024-02-29T17:27:52.300Z,100514.53
2024-02-29T17:30:19.821Z,100505.81
2024-02-29T17:32:48.484Z,100502.72
2024-02-29T17:35:17.093Z,100506.28
2024-02-29T17:40:11.767Z,100479.91
2024-02-29T17:42:38.357Z,100505.34
2024-02-29T17:45:05.429Z,100495.63
2024-02-29T17:47:32.074Z,100500.97
2024-02-29T17:49:58.912Z,100492.53
2024-02-29T17:52:26.373Z,100496.09
2024-02-29T17:54:53.357Z,100492.22
2024-02-29T17:57:19.914Z,100484.78
2024-02-29T17:59:46.401Z,100480.06
2024-02-29T18:02:12.923Z,100473.16
2024-02-29T18:04:39.689Z,100479.91
2024-02-29T18:07:06.423Z,100473.28
2024-02-29T18:09:33.448Z,100469.25
2024-02-29T18:11:59.920Z,100463.28
2024-02-29T18:14:27.690Z,100466.50
2024-02-29T18:16:55.733Z,100466.34
2024-02-29T18:19:22.364Z,100467.81
2024-02-29T18:21:49.469Z,100471.69
2024-02-29T18:24:16.009Z,100462.31
2024-02-29T18:26:44.416Z,100465.22
2024-02-29T18:29:10.905Z,100461.47
2024-02-29T18:31:37.344Z,100471.19
2024-02-29T18:34:03.847Z,100469.44
2024-02-29T18:36:30.408Z,100464.72
2024-02-29T18:38:56.925Z,100445.97
2024-02-29T18:41:23.412Z,100460.53
2024-02-29T18:43:50.035Z,100450.16
2024-02-29T18:46:17.581Z,100438.38
2024-02-29T18:48:44.308Z,100448.69
2024-02-29T18:51:10.850Z,100443.03
2024-02-29T18:53:37.320Z,100444.66
2024-02-29T18:56:04.018Z,100440.13
2024-02-29T18:58:31.269Z,100442.72
2024-02-29T19:00:57.953Z,100435.44
2024-02-29T19:03:24.460Z,100425.91
2024-02-29T19:05:51.830Z,100432.72
2024-02-29T19:08:20.240Z,100433.84
2024-02-29T19:10:47.303Z,100417.03
2024-02-29T19:13:14.082Z,100427.34
2024-02-29T19:15:40.612Z,100423.13
2024-02-29T19:18:09.975Z,100423.00
2024-02-29T19:20:36.495Z,100421.22
2024-02-29T19:23:03.800Z,100424.47
2024-02-29T19:25:30.398Z,100411.81
2024-02-29T19:27:56.946Z,100413.13
2024-02-29T19:30:23.825Z,100415.03
2024-02-29T19:32:50.454Z,100416.66
2024-02-29T19:35:16.950Z,100407.25
2024-02-29T19:37:43.687Z,100409.69
2024-02-29T19:40:10.327Z,100402.41
2024-02-29T19:42:39.042Z,100394.00
2024-02-29T19:45:06.811Z,100398.69
2024-02-29T19:47:33.437Z,100394.84
2024-02-29T19:50:00.001Z,100391.66
2024-02-29T19:52:27.364Z,100395.81
2024-02-29T19:54:53.971Z,100393.88
2024-02-29T19:57:20.532Z,100391.31
2024-02-29T19:59:47.016Z,100394.69
2024-02-29T20:02:13.659Z,100392.91
2024-02-29T20:04:40.285Z,100397.59
2024-02-29T20:07:06.861Z,100386.28
2024-02-29T20:09:33.781Z,100387.25
2024-02-29T20:12:00.309Z,100384.50
2024-02-29T20:14:26.791Z,100390.97
2024-02-29T20:16:53.319Z,100392.63
2024-02-29T20:19:19.854Z,100391.13
2024-02-29T20:21:47.738Z,100394.84
2024-02-29T20:24:14.355Z,100388.88
2024-02-29T20:26:40.914Z,100389.66
2024-02-29T20:29:07.420Z,100385.75
2024-02-29T20:31:34.821Z,100376.72
2024-02-29T20:34:01.541Z,100384.31
2024-02-29T20:36:29.986Z,100381.41
2024-02-29T20:38:56.879Z,100373.94
2024-02-29T20:41:23.496Z,100380.09
2024-02-29T20:43:50.115Z,100374.59
2024-02-29T20:46:17.825Z,100379.91
2024-02-29T20:48:45.792Z,100373.78
2024-02-29T20:51:12.928Z,100378.94
2024-02-29T20:53:39.583Z,100366.47
2024-02-29T20:56:06.322Z,100360.22
2024-02-29T20:58:32.902Z,100358.06
2024-02-29T21:00:59.949Z,100361.50
2024-02-29T21:03:26.801Z,100360.19
2024-02-29T21:05:53.316Z,100343.06
2024-02-29T21:08:19.807Z,100349.66
2024-02-29T21:10:47.040Z,100334.63
2024-02-29T21:13:13.794Z,100340.13
2024-02-29T21:15:40.504Z,100333.63
2024-02-29T21:18:07.706Z,100324.25
2024-02-29T21:20:35.068Z,100316.31
2024-02-29T21:23:02.874Z,100311.31
2024-02-29T21:25:30.329Z,100310.16
2024-02-29T21:27:57.026Z,100300.66
2024-02-29T21:30:23.638Z,100299.06
2024-02-29T21:32:50.388Z,100292.09
2024-02-29T21:35:20.792Z,100286.28
2024-02-29T21:37:47.521Z,100291.44
2024-02-29T21:40:14.690Z,100298.38
2024-02-29T21:42:41.245Z,100281.41
2024-02-29T21:45:08.892Z,100288.97
2024-02-29T21:47:35.411Z,100286.75
2024-02-29T21:50:02.002Z,100280.56
2024-02-29T21:52:28.642Z,100275.84
2024-02-29T21:54:55.379Z,100277.66
2024-02-29T21:57:21.879Z,100268.44
2024-02-29T21:59:48.388Z,100274.06
2024-02-29T22:02:15.020Z,100271.84
2024-02-29T22:04:41.494Z,100253.88
2024-02-29T22:07:08.200Z,100264.53
2024-02-29T22:09:34.680Z,100258.91
2024-02-29T22:12:01.159Z,100252.56
2024-02-29T22:14:28.232Z,100251.22
2024-02-29T22:16:55.440Z,100248.19
2024-02-29T22:19:23.193Z,100241.56
2024-02-29T22:21:49.965Z,100241.72
2024-02-29T22:24:17.090Z,100243.19
2024-02-29T22:26:43.771Z,100240.78
2024-02-29T22:29:11.944Z,100244.00
2024-02-29T22:31:41.128Z,100239.31
2024-02-29T22:34:07.695Z,100232.88
2024-02-29T22:36:34.214Z,100233.81
2024-02-29T22:39:00.759Z,100227.69
2024-02-29T22:41:27.329Z,100226.09
2024-02-29T22:43:53.859Z,100223.97
2024-02-29T22:46:20.397Z,100225.41
2024-02-29T22:48:46.991Z,100224.59
2024-02-29T22:51:13.517Z,100226.91
2024-02-29T22:53:39.984Z,100219.13
2024-02-29T22:56:06.744Z,100221.56
2024-02-29T22:58:34.192Z,100214.44
2024-02-29T23:01:00.904Z,100216.28
2024-02-29T23:03:27.446Z,100223.22
2024-02-29T23:05:53.957Z,100208.47
2024-02-29T23:08:20.718Z,100217.03
2024-02-29T23:10:47.328Z,100218.81
2024-02-29T23:13:14.134Z,100198.63
2024-02-29T23:15:40.636Z,100207.84
2024-02-29T23:18:07.532Z,100209.78
2024-02-29T23:20:34.195Z,100204.09
2024-02-29T23:23:01.682Z,100183.47
2024-02-29T23:25:29.082Z,100196.69
2024-02-29T23:27:55.755Z,100184.78
2024-02-29T23:30:22.363Z,100185.88
2024-02-29T23:32:48.949Z,100190.06
2024-02-29T23:35:15.517Z,100189.75
2024-02-29T23:37:42.000Z,100181.81
2024-02-29T23:40:08.958Z,100184.25
2024-02-29T23:42:35.530Z,100178.09
2024-02-29T23:45:02.094Z,100167.94
2024-02-29T23:47:28.618Z,100169.25
2024-02-29T23:49:55.087Z,100168.31
2024-02-29T23:52:21.630Z,100159.38
2024-02-29T23:54:48.243Z,100154.84
2024-02-29T23:57:14.705Z,100153.25
2024-02-29T23:59:41.156Z,100164.41
